createdAt,value
2022-09-18T00:00:05.388Z,13.23
2022-09-18T00:02:38.930Z,13.24
2022-09-18T00:05:05.696Z,13.23
2022-09-18T00:07:32.186Z,13.23
2022-09-18T00:09:58.707Z,13.21
2022-09-18T00:12:25.295Z,13.21
2022-09-18T00:14:51.969Z,13.20
2022-09-18T00:17:18.433Z,13.20
2022-09-18T00:19:44.973Z,13.20
2022-09-18T00:22:11.475Z,13.19
2022-09-18T00:24:38.146Z,13.19
2022-09-18T00:27:04.950Z,13.20
2022-09-18T00:29:31.729Z,13.19
2022-09-18T00:31:59.867Z,13.18
2022-09-18T00:34:26.463Z,13.17
2022-09-18T00:36:52.979Z,13.18
2022-09-18T00:39:19.646Z,13.17
2022-09-18T00:41:46.241Z,13.17
2022-09-18T00:44:41.933Z,13.16
2022-09-18T00:47:11.393Z,13.16
2022-09-18T00:49:40.394Z,13.16
2022-09-18T00:52:07.059Z,13.17
2022-09-18T00:54:37.696Z,13.15
2022-09-18T00:57:33.274Z,13.13
2022-09-18T01:00:02.759Z,13.12
2022-09-18T01:02:29.373Z,13.14
2022-09-18T01:04:56.406Z,13.12
2022-09-18T01:07:58.114Z,13.09
2022-09-18T01:10:27.616Z,13.10
2022-09-18T01:13:10.347Z,13.08
2022-09-18T01:15:37.606Z,13.09
2022-09-18T01:18:22.848Z,13.06
2022-09-18T01:21:01.799Z,13.04
2022-09-18T01:23:52.927Z,13.03
2022-09-18T01:26:26.463Z,13.02
2022-09-18T01:29:05.179Z,12.98
2022-09-18T01:31:38.372Z,12.97
2022-09-18T01:34:25.410Z,12.94
2022-09-18T01:36:57.816Z,12.95
2022-09-18T01:39:31.225Z,12.93
2022-09-18T01:41:58.153Z,12.91
2022-09-18T01:44:30.326Z,12.91
2022-09-18T01:47:03.295Z,12.89
2022-09-18T01:49:39.864Z,12.85
2022-09-18T01:52:28.407Z,12.86
2022-09-18T01:54:58.212Z,12.84
2022-09-18T01:57:55.098Z,12.82
2022-09-18T02:00:22.899Z,12.78
2022-09-18T02:02:58.124Z,12.76
2022-09-18T02:05:33.268Z,12.79
2022-09-18T02:08:03.029Z,12.81
2022-09-18T02:10:33.794Z,12.76
2022-09-18T02:13:03.369Z,12.75
2022-09-18T02:15:35.850Z,12.76
2022-09-18T02:18:14.435Z,12.75
2022-09-18T02:20:44.308Z,12.74
2022-09-18T02:23:11.164Z,12.71
2022-09-18T02:25:50.160Z,12.69
2022-09-18T02:28:20.715Z,12.71
2022-09-18T02:30:47.670Z,12.70
2022-09-18T02:33:33.992Z,12.65
2022-09-18T02:36:47.698Z,12.59
2022-09-18T02:39:24.251Z,12.61
2022-09-18T02:42:11.290Z,12.59
2022-09-18T02:45:18.784Z,12.57
2022-09-18T02:48:09.682Z,12.56
2022-09-18T02:50:53.365Z,12.53
2022-09-18T02:53:37.121Z,12.53
2022-09-18T02:56:31.310Z,12.51
2022-09-18T02:59:04.352Z,12.51
2022-09-18T03:01:33.547Z,12.50
2022-09-18T03:04:05.735Z,12.49
2022-09-18T03:06:45.367Z,12.48
2022-09-18T03:09:12.118Z,12.45
2022-09-18T03:11:38.669Z,12.44
2022-09-18T03:14:05.181Z,12.45
2022-09-18T03:16:31.843Z,12.44
2022-09-18T03:18:59.522Z,12.43
2022-09-18T03:21:27.071Z,12.43
2022-09-18T03:23:53.787Z,12.39
2022-09-18T03:26:27.111Z,12.42
2022-09-18T03:28:53.829Z,12.38
2022-09-18T03:31:21.127Z,12.39
2022-09-18T03:33:48.384Z,12.39
2022-09-18T03:36:15.037Z,12.37
2022-09-18T03:38:42.496Z,12.37
2022-09-18T03:41:09.681Z,12.38
2022-09-18T03:43:40.044Z,12.37
2022-09-18T03:46:08.625Z,12.38
2022-09-18T03:48:35.252Z,12.36
2022-09-18T03:51:03.087Z,12.38
2022-09-18T03:53:30.959Z,12.38
2022-09-18T03:56:16.173Z,12.37
2022-09-18T03:59:17.933Z,12.33
2022-09-18T04:01:58.809Z,12.33
2022-09-18T04:04:25.460Z,12.34
2022-09-18T04:07:10.571Z,12.34
2022-09-18T04:09:55.761Z,12.32
2022-09-18T04:12:22.658Z,12.31
2022-09-18T04:15:03.297Z,12.30
2022-09-18T04:17:29.876Z,12.28
2022-09-18T04:19:56.979Z,12.27
2022-09-18T04:22:24.942Z,12.28
2022-09-18T04:24:52.732Z,12.28
2022-09-18T04:27:19.393Z,12.27
2022-09-18T04:29:49.011Z,12.26
2022-09-18T04:32:17.636Z,12.26
2022-09-18T04:34:44.155Z,12.26
2022-09-18T04:37:11.820Z,12.26
2022-09-18T04:39:39.124Z,12.24
2022-09-18T04:42:05.821Z,12.24
2022-09-18T04:44:32.657Z,12.21
2022-09-18T04:46:59.879Z,12.21
2022-09-18T04:49:26.430Z,12.20
2022-09-18T04:51:52.972Z,12.20
2022-09-18T04:54:19.483Z,12.19
2022-09-18T04:56:46.192Z,12.18
2022-09-18T04:59:12.962Z,12.16
2022-09-18T05:01:44.126Z,12.14
2022-09-18T05:04:12.885Z,12.13
2022-09-18T05:07:03.334Z,12.12
2022-09-18T05:09:30.007Z,12.10
2022-09-18T05:11:57.111Z,12.12
2022-09-18T05:14:24.105Z,12.09
2022-09-18T05:16:54.795Z,12.09
2022-09-18T05:19:30.166Z,12.07
2022-09-18T05:22:05.080Z,12.07
2022-09-18T05:24:35.439Z,12.04
2022-09-18T05:27:02.467Z,12.02
2022-09-18T05:29:29.300Z,12.00
2022-09-18T05:32:02.994Z,11.99
2022-09-18T05:34:31.267Z,12.00
2022-09-18T05:36:57.845Z,11.97
2022-09-18T05:39:24.627Z,12.00
2022-09-18T05:41:56.983Z,11.99
2022-09-18T05:44:23.681Z,12.00
2022-09-18T05:46:51.762Z,12.00
2022-09-18T05:49:18.380Z,12.00
2022-09-18T05:51:46.362Z,12.00
2022-09-18T05:54:14.945Z,12.00
2022-09-18T05:56:48.035Z,12.00
2022-09-18T05:59:14.925Z,11.99
2022-09-18T06:01:47.324Z,12.00
2022-09-18T06:04:16.768Z,12.01
2022-09-18T06:06:49.698Z,11.99
2022-09-18T06:09:16.482Z,12.01
2022-09-18T06:11:43.015Z,12.01
2022-09-18T06:14:09.723Z,12.00
2022-09-18T06:16:41.337Z,12.01
2022-09-18T06:19:09.449Z,12.03
2022-09-18T06:21:36.148Z,12.04
2022-09-18T06:24:04.798Z,12.03
2022-09-18T06:26:45.044Z,12.04
2022-09-18T06:29:11.551Z,12.05
2022-09-18T06:31:48.218Z,12.04
2022-09-18T06:34:22.213Z,11.99
2022-09-18T06:36:50.513Z,12.02
2022-09-18T06:39:35.681Z,11.98
2022-09-18T06:42:02.345Z,12.03
2022-09-18T06:44:47.052Z,12.04
2022-09-18T06:47:15.515Z,12.06
2022-09-18T06:49:45.064Z,12.07
2022-09-18T06:52:11.645Z,12.09
2022-09-18T06:54:39.533Z,12.11
2022-09-18T06:57:09.153Z,12.12
2022-09-18T06:59:38.112Z,12.13
2022-09-18T07:02:17.317Z,12.15
2022-09-18T07:05:00.617Z,12.14
2022-09-18T07:07:27.372Z,12.16
2022-09-18T07:09:55.176Z,12.15
2022-09-18T07:12:29.705Z,12.16
2022-09-18T07:14:56.512Z,12.16
2022-09-18T07:17:26.472Z,12.16
2022-09-18T07:19:55.360Z,12.16
2022-09-18T07:22:26.990Z,12.18
2022-09-18T07:24:53.939Z,12.19
2022-09-18T07:27:21.802Z,12.20
2022-09-18T07:29:49.644Z,12.24
2022-09-18T07:32:20.467Z,12.24
2022-09-18T07:34:48.417Z,12.26
2022-09-18T07:37:21.286Z,12.28
2022-09-18T07:39:56.543Z,12.30
2022-09-18T07:42:41.615Z,12.32
2022-09-18T07:45:09.974Z,12.34
2022-09-18T07:47:36.704Z,12.35
2022-09-18T07:50:06.090Z,12.38
2022-09-18T07:52:32.870Z,12.39
2022-09-18T07:54:59.709Z,12.40
2022-09-18T07:57:30.597Z,12.41
2022-09-18T08:00:15.475Z,12.44
2022-09-18T08:02:42.160Z,12.46
2022-09-18T08:05:11.904Z,12.49
2022-09-18T08:07:49.571Z,12.52
2022-09-18T08:10:51.979Z,12.54
2022-09-18T08:13:44.480Z,12.52
2022-09-18T08:16:47.208Z,12.58
2022-09-18T08:19:26.003Z,12.62
2022-09-18T08:21:59.393Z,12.65
2022-09-18T08:24:26.015Z,12.66
2022-09-18T08:26:53.744Z,12.71
2022-09-18T08:29:22.050Z,12.74
2022-09-18T08:31:53.582Z,12.75
2022-09-18T08:34:21.202Z,12.75
2022-09-18T08:36:48.314Z,12.79
2022-09-18T08:39:33.193Z,12.82
2022-09-18T08:42:49.187Z,12.84
2022-09-18T08:45:15.692Z,12.87
2022-09-18T08:47:59.981Z,12.86
2022-09-18T08:50:38.815Z,12.91
2022-09-18T08:53:23.436Z,12.92
2022-09-18T08:56:18.623Z,12.95
2022-09-18T08:59:18.293Z,12.97
2022-09-18T09:02:15.495Z,12.99
2022-09-18T09:04:43.919Z,13.00
2022-09-18T09:07:30.515Z,13.03
2022-09-18T09:10:07.083Z,13.06
2022-09-18T09:12:44.071Z,13.07
2022-09-18T09:15:10.862Z,13.10
2022-09-18T09:18:06.730Z,13.09
2022-09-18T09:20:53.476Z,13.12
2022-09-18T09:23:30.022Z,13.14
2022-09-18T09:26:06.595Z,13.18
2022-09-18T09:29:03.333Z,13.18
2022-09-18T09:31:58.321Z,13.20
2022-09-18T09:35:05.059Z,13.22
2022-09-18T09:37:43.457Z,13.21
2022-09-18T09:40:18.965Z,13.24
2022-09-18T09:42:58.790Z,13.27
2022-09-18T09:45:38.693Z,13.32
2022-09-18T09:48:15.076Z,13.35
2022-09-18T09:51:04.726Z,13.38
2022-09-18T09:53:31.822Z,13.38
2022-09-18T09:56:17.421Z,13.42
2022-09-18T09:59:08.668Z,13.42
2022-09-18T10:02:10.666Z,13.46
2022-09-18T10:05:12.002Z,13.49
2022-09-18T10:08:05.030Z,13.50
2022-09-18T10:10:49.329Z,13.49
2022-09-18T10:13:19.762Z,13.45
2022-09-18T10:15:50.031Z,13.52
2022-09-18T10:18:29.316Z,13.50
2022-09-18T10:21:02.038Z,13.49
2022-09-18T10:23:38.860Z,13.44
2022-09-18T10:26:10.174Z,13.46
2022-09-18T10:28:37.078Z,13.47
2022-09-18T10:31:07.181Z,13.49
2022-09-18T10:33:40.665Z,13.46
2022-09-18T10:36:21.461Z,13.43
2022-09-18T10:38:49.147Z,13.43
2022-09-18T10:41:37.932Z,13.43
2022-09-18T10:44:25.738Z,13.37
2022-09-18T10:47:10.092Z,13.36
2022-09-18T10:49:59.344Z,13.29
2022-09-18T10:52:34.727Z,13.31
2022-09-18T10:55:25.217Z,13.30
2022-09-18T10:57:59.338Z,13.27
2022-09-18T11:00:27.135Z,13.25
2022-09-18T11:03:01.045Z,13.20
2022-09-18T11:05:35.994Z,13.21
2022-09-18T11:08:19.752Z,13.17
2022-09-18T11:10:51.181Z,13.18
2022-09-18T11:13:24.825Z,13.17
2022-09-18T11:15:55.506Z,13.17
2022-09-18T11:18:24.900Z,13.14
2022-09-18T11:20:53.907Z,13.16
2022-09-18T11:23:28.540Z,13.16
2022-09-18T11:26:11.499Z,13.08
2022-09-18T11:28:39.776Z,13.10
2022-09-18T11:31:16.750Z,13.06
2022-09-18T11:33:50.135Z,13.11
2022-09-18T11:36:28.159Z,13.11
2022-09-18T11:38:58.789Z,13.12
2022-09-18T11:41:40.165Z,13.13
2022-09-18T11:44:34.413Z,13.14
2022-09-18T11:47:27.917Z,13.13
2022-09-18T11:50:15.438Z,13.08
2022-09-18T11:52:54.777Z,13.14
2022-09-18T11:55:34.789Z,13.13
2022-09-18T11:58:12.985Z,13.16
2022-09-18T12:00:47.930Z,13.17
2022-09-18T12:03:39.665Z,13.17
2022-09-18T12:06:17.614Z,13.17
2022-09-18T12:09:03.099Z,13.17
2022-09-18T12:11:51.435Z,13.20
2022-09-18T12:14:32.297Z,13.23
2022-09-18T12:17:21.416Z,13.26
2022-09-18T12:19:55.002Z,13.26
2022-09-18T12:22:32.114Z,13.27
2022-09-18T12:25:00.833Z,13.25
2022-09-18T12:28:10.371Z,13.19
2022-09-18T12:30:47.091Z,13.21
2022-09-18T12:33:30.138Z,13.24
2022-09-18T12:36:24.510Z,13.26
2022-09-18T12:39:12.994Z,13.24
2022-09-18T12:41:48.622Z,13.19
2022-09-18T12:44:47.523Z,13.22
2022-09-18T12:47:35.989Z,13.25
2022-09-18T12:50:25.570Z,13.21
2022-09-18T12:53:21.465Z,13.23
2022-09-18T12:56:13.966Z,13.22
2022-09-18T12:59:14.042Z,13.23
2022-09-18T13:01:47.213Z,13.24
2022-09-18T13:04:32.248Z,13.25
2022-09-18T13:07:06.685Z,13.25
2022-09-18T13:09:39.549Z,13.28
2022-09-18T13:12:21.984Z,13.32
2022-09-18T13:14:56.971Z,13.30
2022-09-18T13:17:31.678Z,13.36
2022-09-18T13:20:18.395Z,13.31
2022-09-18T13:22:50.003Z,13.31
2022-09-18T13:25:37.322Z,13.36
2022-09-18T13:28:12.642Z,13.38
2022-09-18T13:30:39.705Z,13.35
2022-09-18T13:33:21.175Z,13.37
2022-09-18T13:35:54.266Z,13.41
2022-09-18T13:38:24.720Z,13.42
2022-09-18T13:41:07.714Z,13.43
2022-09-18T13:43:40.344Z,13.47
2022-09-18T13:46:09.894Z,13.47
2022-09-18T13:48:45.745Z,13.44
2022-09-18T13:51:23.416Z,13.42
2022-09-18T13:54:12.045Z,13.43
2022-09-18T13:57:06.247Z,13.44
2022-09-18T13:59:51.267Z,13.43
2022-09-18T14:02:29.728Z,13.50
2022-09-18T14:05:18.873Z,13.49
2022-09-18T14:07:52.554Z,13.45
2022-09-18T14:10:47.987Z,13.46
2022-09-18T14:13:31.331Z,13.49
2022-09-18T14:16:06.606Z,13.54
2022-09-18T14:18:35.625Z,13.49
2022-09-18T14:21:23.947Z,13.52
2022-09-18T14:24:02.759Z,13.56
2022-09-18T14:26:29.434Z,13.58
2022-09-18T14:29:00.020Z,13.59
2022-09-18T14:31:32.452Z,13.59
2022-09-18T14:34:05.325Z,13.65
2022-09-18T14:36:52.798Z,13.60
2022-09-18T14:39:37.842Z,13.65
2022-09-18T14:42:18.578Z,13.63
2022-09-18T14:44:54.772Z,13.66
2022-09-18T14:47:23.702Z,13.67
2022-09-18T14:49:51.051Z,13.64
2022-09-18T14:52:27.047Z,13.64
2022-09-18T14:54:56.793Z,13.66
2022-09-18T14:57:45.746Z,13.68
2022-09-18T15:00:20.762Z,13.48
2022-09-18T15:02:52.514Z,13.44
2022-09-18T15:05:21.087Z,13.48
2022-09-18T15:07:51.568Z,13.55
2022-09-18T15:10:18.955Z,13.49
2022-09-18T15:12:45.637Z,13.47
2022-09-18T15:15:33.169Z,13.50
2022-09-18T15:18:00.603Z,13.45
2022-09-18T15:20:28.698Z,13.46
2022-09-18T15:22:56.521Z,13.50
2022-09-18T15:25:32.446Z,13.49
2022-09-18T15:28:04.144Z,13.51
2022-09-18T15:30:30.626Z,13.54
2022-09-18T15:33:03.906Z,13.53
2022-09-18T15:35:35.777Z,13.53
2022-09-18T15:38:05.561Z,13.55
2022-09-18T15:40:35.513Z,13.52
2022-09-18T15:43:23.610Z,13.54
2022-09-18T15:46:07.752Z,13.53
2022-09-18T15:48:37.966Z,13.54
2022-09-18T15:51:22.699Z,13.53
2022-09-18T15:54:10.440Z,13.50
2022-09-18T15:56:40.249Z,13.52
2022-09-18T15:59:16.985Z,13.54
2022-09-18T16:01:47.553Z,13.52
2022-09-18T16:04:20.091Z,13.50
2022-09-18T16:07:01.391Z,13.49
2022-09-18T16:09:36.738Z,13.52
2022-09-18T16:12:29.147Z,13.47
2022-09-18T16:15:16.685Z,13.45
2022-09-18T16:17:46.316Z,13.49
2022-09-18T16:20:39.782Z,13.49
2022-09-18T16:23:27.956Z,13.48
2022-09-18T16:26:24.547Z,13.47
2022-09-18T16:29:03.121Z,13.47
2022-09-18T16:31:33.274Z,13.47
2022-09-18T16:34:02.378Z,13.49
2022-09-18T16:36:36.793Z,13.47
2022-09-18T16:39:10.918Z,13.44
2022-09-18T16:41:37.721Z,13.43
2022-09-18T16:44:05.790Z,13.44
2022-09-18T16:46:42.245Z,13.41
2022-09-18T16:49:11.047Z,13.41
2022-09-18T16:51:37.551Z,13.40
2022-09-18T16:54:04.339Z,13.42
2022-09-18T16:56:41.099Z,13.40
2022-09-18T16:59:07.708Z,13.40
2022-09-18T17:01:54.137Z,13.37
2022-09-18T17:04:25.122Z,13.37
2022-09-18T17:06:51.930Z,13.36
2022-09-18T17:09:18.836Z,13.35
2022-09-18T17:11:46.659Z,13.34
2022-09-18T17:14:13.204Z,13.35
2022-09-18T17:16:44.893Z,13.31
2022-09-18T17:19:12.406Z,13.31
2022-09-18T17:21:39.873Z,13.30
2022-09-18T17:24:06.470Z,13.32
2022-09-18T17:26:35.067Z,13.31
2022-09-18T17:29:01.609Z,13.31
2022-09-18T17:31:28.271Z,13.28
2022-09-18T17:33:55.796Z,13.27
2022-09-18T17:36:22.689Z,13.28
2022-09-18T17:38:49.470Z,13.25
2022-09-18T17:41:18.909Z,13.25
2022-09-18T17:43:50.161Z,13.25
2022-09-18T17:46:16.763Z,13.22
2022-09-18T17:48:43.474Z,13.23
2022-09-18T17:51:13.849Z,13.19
2022-09-18T17:53:42.007Z,13.20
2022-09-18T17:56:19.813Z,13.17
2022-09-18T17:58:47.416Z,13.17
2022-09-18T18:01:16.732Z,13.14
2022-09-18T18:03:44.111Z,13.13
2022-09-18T18:06:13.474Z,13.10
2022-09-18T18:08:40.272Z,13.08
2022-09-18T18:11:12.399Z,13.07
2022-09-18T18:13:40.736Z,13.07
2022-09-18T18:16:23.856Z,13.02
2022-09-18T18:18:52.936Z,13.01
2022-09-18T18:21:19.891Z,13.00
2022-09-18T18:23:46.542Z,12.97
2022-09-18T18:26:13.562Z,12.95
2022-09-18T18:28:41.349Z,12.93
2022-09-18T18:31:12.104Z,12.94
2022-09-18T18:33:41.085Z,12.91
2022-09-18T18:36:19.531Z,12.90
2022-09-18T18:38:48.666Z,12.88
2022-09-18T18:41:17.278Z,12.86
2022-09-18T18:43:44.683Z,12.87
2022-09-18T18:46:13.815Z,12.84
2022-09-18T18:48:42.344Z,12.85
2022-09-18T18:51:12.774Z,12.84
2022-09-18T18:53:40.352Z,12.83
2022-09-18T18:56:12.366Z,12.81
2022-09-18T18:58:39.584Z,12.80
2022-09-18T19:01:07.749Z,12.79
2022-09-18T19:03:39.820Z,12.75
2022-09-18T19:06:06.826Z,12.76
2022-09-18T19:08:35.664Z,12.75
2022-09-18T19:11:03.884Z,12.74
2022-09-18T19:14:05.953Z,12.71
2022-09-18T19:16:32.963Z,12.69
2022-09-18T19:19:00.298Z,12.68
2022-09-18T19:21:28.465Z,12.65
2022-09-18T19:23:59.396Z,12.64
2022-09-18T19:26:28.216Z,12.60
2022-09-18T19:29:00.731Z,12.58
2022-09-18T19:31:29.386Z,12.58
2022-09-18T19:33:56.174Z,12.56
2022-09-18T19:36:26.226Z,12.56
2022-09-18T19:38:59.101Z,12.53
2022-09-18T19:41:38.941Z,12.51
2022-09-18T19:44:11.636Z,12.50
2022-09-18T19:46:39.353Z,12.46
2022-09-18T19:49:06.219Z,12.46
2022-09-18T19:51:34.680Z,12.45
2022-09-18T19:54:01.184Z,12.44
2022-09-18T19:56:42.472Z,12.42
2022-09-18T19:59:10.356Z,12.39
2022-09-18T20:01:37.086Z,12.37
2022-09-18T20:04:03.968Z,12.34
2022-09-18T20:06:32.528Z,12.33
2022-09-18T20:08:59.782Z,12.33
2022-09-18T20:11:27.391Z,12.30
2022-09-18T20:13:55.876Z,12.31
2022-09-18T20:16:23.164Z,12.30
2022-09-18T20:18:50.707Z,12.28
2022-09-18T20:21:19.710Z,12.26
2022-09-18T20:23:48.537Z,12.25
2022-09-18T20:26:18.235Z,12.25
2022-09-18T20:28:45.499Z,12.24
2022-09-18T20:31:14.875Z,12.22
2022-09-18T20:33:42.654Z,12.21
2022-09-18T20:36:11.613Z,12.21
2022-09-18T20:38:41.664Z,12.19
2022-09-18T20:41:15.670Z,12.18
2022-09-18T20:43:44.451Z,12.17
2022-09-18T20:46:16.102Z,12.16
2022-09-18T20:48:50.145Z,12.17
2022-09-18T20:51:18.599Z,12.15
2022-09-18T20:53:46.719Z,12.15
2022-09-18T20:56:15.868Z,12.16
2022-09-18T20:58:43.295Z,12.15
2022-09-18T21:01:13.566Z,12.14
2022-09-18T21:03:42.958Z,12.15
2022-09-18T21:06:23.587Z,12.13
2022-09-18T21:08:53.856Z,12.13
2022-09-18T21:11:27.631Z,12.13
2022-09-18T21:14:00.076Z,12.13
2022-09-18T21:16:29.587Z,12.13
2022-09-18T21:18:57.860Z,12.13
2022-09-18T21:21:26.214Z,12.14
2022-09-18T21:23:56.291Z,12.15
2022-09-18T21:26:28.182Z,12.15
2022-09-18T21:29:03.927Z,12.15
2022-09-18T21:31:36.502Z,12.13
2022-09-18T21:34:04.479Z,12.14
2022-09-18T21:36:34.783Z,12.14
2022-09-18T21:39:01.362Z,12.14
2022-09-18T21:41:27.863Z,12.16
2022-09-18T21:43:55.320Z,12.16
2022-09-18T21:46:22.981Z,12.16
2022-09-18T21:48:54.354Z,12.16
2022-09-18T21:51:21.120Z,12.15
2022-09-18T21:53:47.731Z,12.18
2022-09-18T21:56:19.697Z,12.17
2022-09-18T21:58:47.722Z,12.14
2022-09-18T22:01:19.926Z,12.15
2022-09-18T22:03:53.479Z,12.18
2022-09-18T22:06:28.221Z,12.18
2022-09-18T22:08:57.089Z,12.19
2022-09-18T22:11:26.457Z,12.19
2022-09-18T22:13:54.681Z,12.21
2022-09-18T22:16:26.202Z,12.19
2022-09-18T22:18:53.308Z,12.19
2022-09-18T22:21:28.400Z,12.18
2022-09-18T22:23:57.285Z,12.18
2022-09-18T22:26:26.162Z,12.16
2022-09-18T22:28:55.704Z,12.18
2022-09-18T22:31:23.824Z,12.16
2022-09-18T22:33:55.414Z,12.15
2022-09-18T22:36:22.454Z,12.15
2022-09-18T22:38:48.921Z,12.16
2022-09-18T22:41:15.496Z,12.15
2022-09-18T22:43:42.086Z,12.15
2022-09-18T22:46:13.895Z,12.15
2022-09-18T22:48:41.208Z,12.15
2022-09-18T22:51:10.610Z,12.13
2022-09-18T22:53:39.767Z,12.13
2022-09-18T22:56:11.147Z,12.12
2022-09-18T22:58:39.936Z,12.12
2022-09-18T23:01:13.225Z,12.11
2022-09-18T23:03:40.114Z,12.10
2022-09-18T23:06:07.852Z,12.09
2022-09-18T23:08:35.250Z,12.10
2022-09-18T23:11:13.499Z,12.11
2022-09-18T23:13:42.171Z,12.09
2022-09-18T23:16:10.689Z,12.09
2022-09-18T23:18:38.267Z,12.09
2022-09-18T23:21:12.602Z,12.09
2022-09-18T23:23:46.959Z,12.11
2022-09-18T23:26:19.326Z,12.12
2022-09-18T23:28:47.431Z,12.12
2022-09-18T23:31:24.820Z,12.10
2022-09-18T23:33:56.940Z,12.11
2022-09-18T23:36:29.288Z,12.13
2022-09-18T23:38:58.654Z,12.13
2022-09-18T23:41:26.859Z,12.14
2022-09-18T23:43:54.343Z,12.14
2022-09-18T23:46:21.945Z,12.15
2022-09-18T23:48:54.752Z,12.13
2022-09-18T23:51:26.836Z,12.13
2022-09-18T23:53:55.353Z,12.14
2022-09-18T23:56:23.584Z,12.15
2022-09-18T23:59:08.097Z,12.14
